createdAt,value
2018-09-30T00:05:03.582Z,85.80
2018-09-30T00:10:25.630Z,85.20
2018-09-30T00:15:47.594Z,85.80
2018-09-30T00:21:09.314Z,86.10
2018-09-30T00:26:36.072Z,86.40
2018-09-30T00:31:58.926Z,86.50
2018-09-30T00:37:21.162Z,86.80
2018-09-30T00:42:43.026Z,87.00
2018-09-30T00:48:05.249Z,87.60
2018-09-30T00:53:27.155Z,87.50
2018-09-30T00:58:49.293Z,87.70
2018-09-30T01:04:11.637Z,87.80
2018-09-30T01:09:34.025Z,87.90
2018-09-30T01:14:57.029Z,88.50
2018-09-30T01:20:19.753Z,88.40
2018-09-30T01:25:42.469Z,88.80
2018-09-30T01:31:04.881Z,89.20
2018-09-30T01:36:27.018Z,89.40
2018-09-30T01:41:50.151Z,89.70
2018-09-30T01:47:11.902Z,89.90
2018-09-30T01:52:43.875Z,90.00
2018-09-30T01:58:06.021Z,89.50
2018-09-30T02:03:27.746Z,89.60
2018-09-30T02:08:49.757Z,89.70
2018-09-30T02:14:11.919Z,89.10
2018-09-30T02:19:33.954Z,89.40
2018-09-30T02:24:55.805Z,90.00
2018-09-30T02:30:17.951Z,89.40
2018-09-30T02:35:39.858Z,89.80
2018-09-30T02:41:01.965Z,90.00
2018-09-30T02:46:23.895Z,90.10
2018-09-30T02:51:45.967Z,89.70
2018-09-30T02:57:07.782Z,89.20
2018-09-30T03:02:30.570Z,90.00
2018-09-30T03:07:57.427Z,90.30
2018-09-30T03:13:19.325Z,90.70
2018-09-30T03:18:41.325Z,90.80
2018-09-30T03:24:03.748Z,90.90
2018-09-30T03:29:26.015Z,91.20
2018-09-30T03:34:48.772Z,91.30
2018-09-30T03:40:10.834Z,91.00
2018-09-30T03:45:32.739Z,91.40
2018-09-30T03:50:55.212Z,91.80
2018-09-30T03:56:16.954Z,91.60
2018-09-30T04:01:39.005Z,91.60
2018-09-30T04:07:00.901Z,91.80
2018-09-30T04:12:22.988Z,91.80
2018-09-30T04:17:44.795Z,91.80
2018-09-30T04:23:06.963Z,91.80
2018-09-30T04:28:29.193Z,91.70
2018-09-30T04:33:51.326Z,91.50
2018-09-30T04:39:13.477Z,91.40
2018-09-30T04:44:35.265Z,91.60
2018-09-30T04:49:57.363Z,91.80
2018-09-30T04:55:19.240Z,92.10
2018-09-30T05:00:41.261Z,92.30
2018-09-30T05:06:03.021Z,92.20
2018-09-30T05:11:25.107Z,92.20
2018-09-30T05:16:46.821Z,92.00
2018-09-30T05:22:09.097Z,92.20
2018-09-30T05:27:31.078Z,92.40
2018-09-30T05:32:52.978Z,91.80
2018-09-30T05:38:15.113Z,92.10
2018-09-30T05:43:37.113Z,92.30
2018-09-30T05:48:58.901Z,92.40
2018-09-30T05:54:21.756Z,92.10
2018-09-30T05:59:44.038Z,92.70
2018-09-30T06:05:05.794Z,92.50
2018-09-30T06:10:27.954Z,92.70
2018-09-30T06:15:49.841Z,92.90
2018-09-30T06:21:11.883Z,93.20
2018-09-30T06:26:33.627Z,92.90
2018-09-30T06:31:58.486Z,93.00
2018-09-30T06:37:20.447Z,93.10
2018-09-30T06:42:42.693Z,93.00
2018-09-30T06:48:04.631Z,92.70
2018-09-30T06:53:26.630Z,92.50
2018-09-30T06:58:48.354Z,92.30
2018-09-30T07:04:10.600Z,92.20
2018-09-30T07:09:32.326Z,92.00
2018-09-30T07:14:54.588Z,92.00
2018-09-30T07:20:16.361Z,91.90
2018-09-30T07:25:38.339Z,91.70
2018-09-30T07:31:00.125Z,91.60
2018-09-30T07:36:23.238Z,91.40
2018-09-30T07:41:45.086Z,91.30
2018-09-30T07:47:07.450Z,91.10
2018-09-30T07:52:29.558Z,90.60
2018-09-30T07:57:51.793Z,90.20
2018-09-30T08:03:13.657Z,89.50
2018-09-30T08:08:36.056Z,88.20
2018-09-30T08:13:57.873Z,86.80
2018-09-30T08:19:20.484Z,85.90
2018-09-30T08:24:42.548Z,85.60
2018-09-30T08:30:04.359Z,84.20
2018-09-30T08:35:26.487Z,84.30
2018-09-30T08:40:54.048Z,82.60
2018-09-30T08:46:15.761Z,81.30
2018-09-30T08:51:38.090Z,82.00
2018-09-30T08:57:00.446Z,78.10
2018-09-30T09:02:22.506Z,79.20
2018-09-30T09:07:44.603Z,77.70
2018-09-30T09:13:07.690Z,76.90
2018-09-30T09:18:29.891Z,76.00
2018-09-30T09:23:51.718Z,75.20
2018-09-30T09:29:13.838Z,73.80
2018-09-30T09:34:35.642Z,72.40
2018-09-30T09:39:57.902Z,72.90
2018-09-30T09:45:20.495Z,70.60
2018-09-30T09:50:42.674Z,70.40
2018-09-30T09:56:04.665Z,70.00
2018-09-30T10:01:26.455Z,71.90
2018-09-30T10:06:48.646Z,72.40
2018-09-30T10:12:10.462Z,72.70
2018-09-30T10:17:33.021Z,71.70
2018-09-30T10:22:55.556Z,69.10
2018-09-30T10:28:17.833Z,69.50
2018-09-30T10:33:40.866Z,69.20
2018-09-30T10:39:03.153Z,67.50
2018-09-30T10:44:25.058Z,65.00
2018-09-30T10:49:48.272Z,66.10
2018-09-30T10:55:10.372Z,64.70
2018-09-30T11:00:32.711Z,62.10
2018-09-30T11:05:54.498Z,63.10
2018-09-30T11:11:16.581Z,61.50
2018-09-30T11:16:38.485Z,62.40
2018-09-30T11:22:00.710Z,64.00
2018-09-30T11:27:22.685Z,64.40
2018-09-30T11:32:44.715Z,65.10
2018-09-30T11:38:07.895Z,63.20
2018-09-30T11:43:30.047Z,61.50
2018-09-30T11:48:51.924Z,61.30
2018-09-30T11:54:14.221Z,59.30
2018-09-30T11:59:35.990Z,60.60
2018-09-30T12:04:58.110Z,62.90
2018-09-30T12:10:19.987Z,63.00
2018-09-30T12:15:42.081Z,60.40
2018-09-30T12:21:03.869Z,57.50
2018-09-30T12:26:26.749Z,58.80
2018-09-30T12:31:48.745Z,59.20
2018-09-30T12:37:11.026Z,59.20
2018-09-30T12:42:33.001Z,57.20
2018-09-30T12:47:55.457Z,57.10
2018-09-30T12:53:17.453Z,56.70
2018-09-30T12:58:40.006Z,57.50
2018-09-30T13:04:02.145Z,55.10
2018-09-30T13:09:24.019Z,57.00
2018-09-30T13:14:46.394Z,57.10
2018-09-30T13:20:08.363Z,56.30
2018-09-30T13:25:30.329Z,54.30
2018-09-30T13:30:52.518Z,54.60
2018-09-30T13:36:14.480Z,55.30
2018-09-30T13:41:36.230Z,56.70
2018-09-30T13:46:58.327Z,55.80
2018-09-30T13:52:20.667Z,56.80
2018-09-30T13:57:42.542Z,57.10
2018-09-30T14:03:05.439Z,57.80
2018-09-30T14:08:27.606Z,56.00
2018-09-30T14:13:50.635Z,55.90
2018-09-30T14:19:12.494Z,56.00
2018-09-30T14:24:34.677Z,56.50
2018-09-30T14:29:56.511Z,56.00
2018-09-30T14:35:18.884Z,57.10
2018-09-30T14:40:40.813Z,56.40
2018-09-30T14:46:02.961Z,56.20
2018-09-30T14:51:24.770Z,56.40
2018-09-30T14:56:46.861Z,56.50
2018-09-30T15:02:08.861Z,56.90
2018-09-30T15:07:31.027Z,55.70
2018-09-30T15:12:52.762Z,55.90
2018-09-30T15:18:14.794Z,56.90
2018-09-30T15:23:36.551Z,57.20
2018-09-30T15:29:00.832Z,56.60
2018-09-30T15:34:23.041Z,57.30
2018-09-30T15:39:45.034Z,57.90
2018-09-30T15:45:07.189Z,58.20
2018-09-30T15:50:29.841Z,58.10
2018-09-30T15:55:52.237Z,58.60
2018-09-30T16:01:16.165Z,57.20
2018-09-30T16:06:38.200Z,57.50
2018-09-30T16:12:00.570Z,57.50
2018-09-30T16:17:22.427Z,58.30
2018-09-30T16:22:44.605Z,57.30
2018-09-30T16:28:14.711Z,57.90
2018-09-30T16:33:56.127Z,57.70
2018-09-30T16:39:17.872Z,58.40
2018-09-30T16:44:40.261Z,59.60
2018-09-30T16:50:02.665Z,59.70
2018-09-30T16:55:24.957Z,60.10
2018-09-30T17:00:47.448Z,62.00
2018-09-30T17:06:09.595Z,63.20
2018-09-30T17:11:31.393Z,64.30
2018-09-30T17:16:53.762Z,64.90
2018-09-30T17:22:15.569Z,64.70
2018-09-30T17:27:37.514Z,65.60
2018-09-30T17:32:59.203Z,66.40
2018-09-30T17:38:21.474Z,67.40
2018-09-30T17:43:43.367Z,68.40
2018-09-30T17:49:05.875Z,68.70
2018-09-30T17:54:28.086Z,69.70
2018-09-30T17:59:50.011Z,70.70
2018-09-30T18:05:12.085Z,70.90
2018-09-30T18:10:33.791Z,71.50
2018-09-30T18:15:55.822Z,72.30
2018-09-30T18:21:17.902Z,73.20
2018-09-30T18:26:39.770Z,73.50
2018-09-30T18:32:01.594Z,73.60
2018-09-30T18:37:23.861Z,73.50
2018-09-30T18:42:45.825Z,74.10
2018-09-30T18:48:08.508Z,74.80
2018-09-30T18:53:32.555Z,75.50
2018-09-30T18:58:54.398Z,75.50
2018-09-30T19:04:16.770Z,76.00
2018-09-30T19:09:38.548Z,76.00
2018-09-30T19:15:00.795Z,75.90
2018-09-30T19:20:22.701Z,76.10
2018-09-30T19:25:45.106Z,76.50
2018-09-30T19:31:07.295Z,77.10
2018-09-30T19:36:29.125Z,77.80
2018-09-30T19:41:50.791Z,78.70
2018-09-30T19:47:12.933Z,79.10
2018-09-30T19:52:34.730Z,79.50
2018-09-30T19:57:56.973Z,79.10
2018-09-30T20:03:19.215Z,78.80
2018-09-30T20:08:41.205Z,79.00
2018-09-30T20:14:03.062Z,79.60
2018-09-30T20:19:25.533Z,78.90
2018-09-30T20:24:49.479Z,78.70
2018-09-30T20:30:11.365Z,80.40
2018-09-30T20:35:33.308Z,80.70
2018-09-30T20:40:55.113Z,82.50
2018-09-30T20:46:17.361Z,83.70
2018-09-30T20:51:38.990Z,84.70
2018-09-30T20:57:01.147Z,85.20
2018-09-30T21:02:22.977Z,85.50
2018-09-30T21:07:44.988Z,86.20
2018-09-30T21:13:07.171Z,86.50
2018-09-30T21:18:29.630Z,87.70
2018-09-30T21:23:51.695Z,86.50
2018-09-30T21:29:13.357Z,86.80
2018-09-30T21:34:35.442Z,86.00
2018-09-30T21:39:57.197Z,86.40
2018-09-30T21:45:19.446Z,86.20
2018-09-30T21:50:41.241Z,85.70
2018-09-30T21:56:03.402Z,85.90
2018-09-30T22:01:25.283Z,86.30
2018-09-30T22:06:47.498Z,85.90
2018-09-30T22:12:09.286Z,85.90
2018-09-30T22:17:31.433Z,86.60
2018-09-30T22:22:57.082Z,86.90
2018-09-30T22:28:20.669Z,87.30
2018-09-30T22:33:43.538Z,88.40
2018-09-30T22:39:06.711Z,88.40
2018-09-30T22:44:28.619Z,88.40
2018-09-30T22:49:50.686Z,89.40
2018-09-30T22:55:12.638Z,89.70
2018-09-30T23:00:34.722Z,89.30
2018-09-30T23:05:56.426Z,88.60
2018-09-30T23:11:18.807Z,87.50
2018-09-30T23:16:40.545Z,87.00
2018-09-30T23:22:02.657Z,86.80
2018-09-30T23:27:24.497Z,86.80
2018-09-30T23:32:46.585Z,87.00
2018-09-30T23:38:08.480Z,87.40
2018-09-30T23:43:31.845Z,86.90
2018-09-30T23:48:54.030Z,87.00
2018-09-30T23:54:16.051Z,87.70
2018-09-30T23:59:37.798Z,87.30
